createdAt,value
2023-04-16T00:01:46.184Z,100100.63
2023-04-16T00:04:20.982Z,100099.69
2023-04-16T00:06:56.671Z,100098.28
2023-04-16T00:09:31.344Z,100103.25
2023-04-16T00:12:06.502Z,100100.97
2023-04-16T00:14:41.120Z,100106.31
2023-04-16T00:17:15.644Z,100097.19
2023-04-16T00:19:50.534Z,100104.16
2023-04-16T00:22:26.303Z,100099.09
2023-04-16T00:25:00.918Z,100109.22
2023-04-16T00:27:35.150Z,100108.50
2023-04-16T00:30:10.877Z,100100.84
2023-04-16T00:32:45.227Z,100107.47
2023-04-16T00:35:20.053Z,100101.09
2023-04-16T00:37:55.843Z,100106.34
2023-04-16T00:40:31.044Z,100108.91
2023-04-16T00:43:05.549Z,100103.94
2023-04-16T00:45:40.410Z,100103.31
2023-04-16T00:48:14.981Z,100112.72
2023-04-16T00:50:50.037Z,100119.38
2023-04-16T00:53:26.025Z,100114.22
2023-04-16T00:56:00.875Z,100117.12
2023-04-16T00:58:36.114Z,100122.44
2023-04-16T01:01:10.858Z,100120.59
2023-04-16T01:03:46.536Z,100122.34
2023-04-16T01:06:21.714Z,100111.22
2023-04-16T01:08:57.841Z,100115.47
2023-04-16T01:11:32.949Z,100119.31
2023-04-16T01:14:07.317Z,100126.06
2023-04-16T01:16:41.938Z,100137.97
2023-04-16T01:19:16.435Z,100132.50
2023-04-16T01:21:52.602Z,100136.22
2023-04-16T01:24:26.911Z,100125.66
2023-04-16T01:27:01.638Z,100134.97
2023-04-16T01:29:36.244Z,100131.87
2023-04-16T01:32:11.071Z,100133.47
2023-04-16T01:34:45.585Z,100131.81
2023-04-16T01:37:21.560Z,100130.72
2023-04-16T01:39:55.905Z,100130.78
2023-04-16T01:42:30.721Z,100130.50
2023-04-16T01:45:05.892Z,100127.75
2023-04-16T01:47:40.741Z,100139.22
2023-04-16T01:50:15.585Z,100141.25
2023-04-16T01:52:51.642Z,100143.22
2023-04-16T01:55:27.015Z,100143.47
2023-04-16T01:58:01.553Z,100150.56
2023-04-16T02:00:36.868Z,100152.03
2023-04-16T02:03:11.760Z,100156.97
2023-04-16T02:05:47.502Z,100158.75
2023-04-16T02:08:23.567Z,100164.56
2023-04-16T02:10:58.464Z,100166.28
2023-04-16T02:13:34.333Z,100184.66
2023-04-16T02:16:09.142Z,100184.78
2023-04-16T02:18:44.810Z,100192.91
2023-04-16T02:21:20.364Z,100187.09
2023-04-16T02:23:56.172Z,100197.50
2023-04-16T02:26:31.234Z,100192.56
2023-04-16T02:29:06.374Z,100190.81
2023-04-16T02:31:41.861Z,100191.12
2023-04-16T02:34:17.395Z,100183.81
2023-04-16T02:36:51.993Z,100178.22
2023-04-16T02:39:27.749Z,100180.28
2023-04-16T02:42:02.930Z,100174.72
2023-04-16T02:44:37.232Z,100183.97
2023-04-16T02:47:11.891Z,100176.69
2023-04-16T02:49:46.203Z,100180.19
2023-04-16T02:52:20.906Z,100180.28
2023-04-16T02:54:56.593Z,100175.34
2023-04-16T02:57:31.251Z,100190.09
2023-04-16T03:00:06.499Z,100183.88
2023-04-16T03:02:42.646Z,100183.88
2023-04-16T03:05:17.251Z,100180.06
2023-04-16T03:07:56.781Z,100177.22
2023-04-16T03:10:32.633Z,100176.78
2023-04-16T03:13:07.371Z,100174.91
2023-04-16T03:15:41.829Z,100183.44
2023-04-16T03:18:16.480Z,100172.72
2023-04-16T03:20:53.482Z,100176.88
2023-04-16T03:23:28.360Z,100178.09
2023-04-16T03:26:04.141Z,100177.00
2023-04-16T03:28:38.851Z,100181.91
2023-04-16T03:31:13.347Z,100186.06
2023-04-16T03:33:48.126Z,100178.09
2023-04-16T03:36:23.025Z,100192.75
2023-04-16T03:38:57.770Z,100194.50
2023-04-16T03:41:33.537Z,100192.31
2023-04-16T03:44:08.237Z,100194.81
2023-04-16T03:46:42.688Z,100197.56
2023-04-16T03:49:17.787Z,100198.44
2023-04-16T03:51:52.485Z,100207.28
2023-04-16T03:54:27.137Z,100205.22
2023-04-16T03:57:04.260Z,100203.37
2023-04-16T03:59:39.371Z,100202.81
2023-04-16T04:02:13.963Z,100200.19
2023-04-16T04:04:49.887Z,100205.53
2023-04-16T04:07:24.899Z,100206.53
2023-04-16T04:09:59.827Z,100206.75
2023-04-16T04:12:35.452Z,100208.06
2023-04-16T04:15:11.118Z,100216.28
2023-04-16T04:17:45.539Z,100220.09
2023-04-16T04:20:20.196Z,100229.91
2023-04-16T04:22:54.791Z,100222.28
2023-04-16T04:25:29.844Z,100232.38
2023-04-16T04:28:08.290Z,100233.47
2023-04-16T04:30:43.277Z,100232.38
2023-04-16T04:33:18.173Z,100235.72
2023-04-16T04:35:53.047Z,100235.97
2023-04-16T04:38:27.525Z,100249.41
2023-04-16T04:41:02.324Z,100239.78
2023-04-16T04:43:39.208Z,100245.34
2023-04-16T04:46:14.017Z,100242.28
2023-04-16T04:48:48.415Z,100242.88
2023-04-16T04:51:23.824Z,100239.03
2023-04-16T04:53:58.159Z,100246.12
2023-04-16T04:56:32.908Z,100242.38
2023-04-16T04:59:11.084Z,100247.19
2023-04-16T05:01:46.775Z,100248.38
2023-04-16T05:04:21.200Z,100255.28
2023-04-16T05:06:56.580Z,100249.47
2023-04-16T05:09:30.932Z,100253.09
2023-04-16T05:12:05.665Z,100235.81
2023-04-16T05:14:41.352Z,100248.16
2023-04-16T05:17:15.920Z,100242.94
2023-04-16T05:19:50.296Z,100241.13
2023-04-16T05:22:25.108Z,100251.25
2023-04-16T05:24:59.570Z,100248.81
2023-04-16T05:27:34.174Z,100245.09
2023-04-16T05:30:11.500Z,100250.44
2023-04-16T05:32:46.241Z,100253.41
2023-04-16T05:35:20.771Z,100256.25
2023-04-16T05:37:55.688Z,100248.78
2023-04-16T05:40:30.399Z,100247.94
2023-04-16T05:43:05.074Z,100248.50
2023-04-16T05:45:41.535Z,100256.03
2023-04-16T05:48:16.119Z,100247.34
2023-04-16T05:50:50.955Z,100243.00
2023-04-16T05:53:25.555Z,100254.41
2023-04-16T05:55:59.850Z,100253.94
2023-04-16T05:58:34.524Z,100253.47
2023-04-16T06:02:55.075Z,100259.72
2023-04-16T06:05:30.750Z,100265.13
2023-04-16T06:08:05.101Z,100262.66
2023-04-16T06:10:39.770Z,100262.34
2023-04-16T06:13:14.026Z,100268.06
2023-04-16T06:15:48.746Z,100265.19
2023-04-16T06:18:24.535Z,100274.37
2023-04-16T06:21:00.050Z,100270.31
2023-04-16T06:23:34.430Z,100277.44
2023-04-16T06:26:09.078Z,100280.00
2023-04-16T06:28:43.423Z,100279.31
2023-04-16T06:31:18.125Z,100274.63
2023-04-16T06:33:53.995Z,100278.34
2023-04-16T06:36:29.211Z,100276.94
2023-04-16T06:39:03.570Z,100276.62
2023-04-16T06:41:38.271Z,100283.19
2023-04-16T06:44:12.549Z,100288.94
2023-04-16T06:46:47.228Z,100287.09
2023-04-16T06:49:23.166Z,100293.53
2023-04-16T06:51:58.881Z,100305.34
2023-04-16T06:54:33.492Z,100297.87
2023-04-16T06:57:08.085Z,100301.69
2023-04-16T06:59:42.906Z,100296.44
2023-04-16T07:02:17.600Z,100296.78
2023-04-16T07:04:53.701Z,100292.62
2023-04-16T07:07:28.455Z,100295.19
2023-04-16T07:10:02.816Z,100294.16
2023-04-16T07:12:37.829Z,100301.03
2023-04-16T07:15:12.754Z,100295.94
2023-04-16T07:17:47.379Z,100303.47
2023-04-16T07:20:23.046Z,100296.31
2023-04-16T07:22:59.613Z,100288.31
2023-04-16T07:25:34.158Z,100282.97
2023-04-16T07:28:09.409Z,100294.78
2023-04-16T14:02:56.251Z,100184.84
2023-04-16T14:05:31.472Z,100184.84
2023-04-16T14:08:05.897Z,100189.63
2023-04-16T14:10:40.805Z,100194.62
2023-04-16T14:13:15.576Z,100194.88
2023-04-16T14:15:50.832Z,100184.03
2023-04-16T14:18:26.511Z,100188.53
2023-04-16T14:21:02.330Z,100185.50
2023-04-16T14:23:37.161Z,100185.50
2023-04-16T14:26:12.081Z,100184.06
2023-04-16T14:28:47.302Z,100185.84
2023-04-16T14:31:22.016Z,100185.72
2023-04-16T14:33:57.741Z,100179.06
2023-04-16T14:36:32.615Z,100185.16
2023-04-16T14:39:07.267Z,100180.28
2023-04-16T14:41:42.125Z,100184.59
2023-04-16T14:44:17.183Z,100178.34
2023-04-16T14:46:51.921Z,100180.91
2023-04-16T14:49:27.958Z,100186.00
2023-04-16T14:52:05.416Z,100181.34
2023-04-16T14:54:40.008Z,100174.19
2023-04-16T14:57:14.718Z,100179.69
2023-04-16T14:59:49.590Z,100177.41
2023-04-16T15:02:24.547Z,100177.28
2023-04-16T15:05:01.548Z,100175.75
2023-04-16T15:07:36.187Z,100180.09
2023-04-16T15:10:12.725Z,100179.06
2023-04-16T15:12:47.474Z,100174.75
2023-04-16T15:15:22.059Z,100173.78
2023-04-16T15:17:57.832Z,100170.53
2023-04-16T15:20:33.900Z,100167.19
2023-04-16T15:23:09.027Z,100177.22
2023-04-16T15:25:43.365Z,100180.44
2023-04-16T15:28:18.242Z,100174.34
2023-04-16T15:30:55.850Z,100182.91
2023-04-16T15:33:34.402Z,100182.09
2023-04-16T15:36:11.476Z,100186.88
2023-04-16T15:38:46.291Z,100187.78
2023-04-16T15:41:23.348Z,100186.06
2023-04-16T15:43:58.093Z,100190.00
2023-04-16T15:46:32.417Z,100191.50
2023-04-16T15:49:07.766Z,100196.41
2023-04-16T15:51:44.049Z,100192.38
2023-04-16T15:54:20.530Z,100201.34
2023-04-16T15:57:01.194Z,100204.91
2023-04-16T15:59:38.925Z,100199.91
2023-04-16T16:02:17.856Z,100204.56
2023-04-16T16:04:52.563Z,100210.47
2023-04-16T16:07:33.590Z,100214.25
2023-04-16T16:10:10.200Z,100214.72
2023-04-16T16:12:48.316Z,100214.81
2023-04-16T16:15:24.588Z,100216.53
2023-04-16T16:17:59.327Z,100209.50
2023-04-16T16:20:34.583Z,100209.34
2023-04-16T16:23:12.085Z,100205.34
2023-04-16T16:25:51.611Z,100205.75
2023-04-16T16:28:26.781Z,100201.62
2023-04-16T16:31:02.153Z,100207.00
2023-04-16T16:33:40.749Z,100204.28
2023-04-16T16:36:15.995Z,100208.84
2023-04-16T16:38:51.797Z,100205.34
2023-04-16T16:41:26.928Z,100204.47
2023-04-16T16:44:01.658Z,100192.87
2023-04-16T16:46:36.718Z,100195.81
2023-04-16T16:49:11.633Z,100202.84
2023-04-16T16:51:47.008Z,100205.63
2023-04-16T16:54:22.971Z,100194.34
2023-04-16T16:56:57.729Z,100206.22
2023-04-16T16:59:32.373Z,100203.81
2023-04-16T17:02:08.207Z,100210.31
2023-04-16T17:04:43.007Z,100211.13
2023-04-16T17:07:17.709Z,100217.63
2023-04-16T17:09:53.741Z,100219.22
2023-04-16T17:12:28.879Z,100216.25
2023-04-16T17:15:03.882Z,100213.87
2023-04-16T17:17:38.963Z,100226.59
2023-04-16T17:20:14.403Z,100226.00
2023-04-16T17:22:49.348Z,100235.16
2023-04-16T17:25:25.089Z,100226.59
2023-04-16T17:28:00.154Z,100233.59
2023-04-16T17:30:34.919Z,100235.06
2023-04-16T17:33:10.260Z,100226.94
2023-04-16T17:35:44.912Z,100240.75
2023-04-16T17:38:19.500Z,100239.91
2023-04-16T17:40:57.147Z,100242.47
2023-04-16T17:43:32.196Z,100244.53
2023-04-16T17:46:06.740Z,100242.53
2023-04-16T17:48:41.770Z,100244.69
2023-04-16T17:51:16.749Z,100253.47
2023-04-16T17:53:52.021Z,100248.31
2023-04-16T17:56:27.982Z,100263.34
2023-04-16T17:59:02.971Z,100264.28
2023-04-16T18:01:38.769Z,100262.91
2023-04-16T18:04:13.771Z,100265.78
2023-04-16T18:06:48.746Z,100276.97
2023-04-16T18:09:24.170Z,100273.94
2023-04-16T18:12:00.018Z,100274.50
2023-04-16T18:14:35.993Z,100269.28
2023-04-16T18:17:10.566Z,100270.19
2023-04-16T18:19:45.614Z,100276.00
2023-04-16T18:22:19.931Z,100277.91
2023-04-16T18:24:54.823Z,100279.09
2023-04-16T18:27:30.506Z,100278.75
2023-04-16T18:30:06.507Z,100284.47
2023-04-16T18:32:59.862Z,100290.59
2023-04-16T18:35:36.303Z,100283.97
2023-04-16T18:38:11.165Z,100292.28
2023-04-16T18:40:47.097Z,100294.37
2023-04-16T18:43:23.909Z,100290.59
2023-04-16T18:45:58.819Z,100296.66
2023-04-16T18:48:33.452Z,100302.97
2023-04-16T18:51:09.188Z,100304.19
2023-04-16T18:53:44.494Z,100289.16
2023-04-16T18:56:20.044Z,100292.28
2023-04-16T18:58:56.102Z,100302.25
2023-04-16T19:01:31.209Z,100301.78
2023-04-16T19:04:05.984Z,100295.28
2023-04-16T19:06:41.164Z,100294.91
2023-04-16T19:09:17.054Z,100297.97
2023-04-16T19:11:52.321Z,100292.16
2023-04-16T19:14:28.570Z,100292.62
2023-04-16T19:17:03.149Z,100304.28
2023-04-16T19:19:37.714Z,100301.28
2023-04-16T19:22:12.920Z,100303.59
2023-04-16T19:24:47.450Z,100296.38
2023-04-16T19:27:22.600Z,100286.31
2023-04-16T19:29:58.641Z,100297.94
2023-04-16T19:32:33.913Z,100295.22
2023-04-16T19:35:09.713Z,100295.16
2023-04-16T19:37:44.714Z,100284.72
2023-04-16T19:40:19.929Z,100304.56
2023-04-16T19:42:55.151Z,100292.50
2023-04-16T19:45:31.451Z,100291.69
2023-04-16T19:48:06.988Z,100287.38
2023-04-16T19:50:42.083Z,100283.53
2023-04-16T19:53:17.324Z,100281.81
2023-04-16T19:55:51.683Z,100270.91
2023-04-16T19:58:31.826Z,100261.94
2023-04-16T20:01:11.404Z,100254.03
2023-04-16T20:03:46.463Z,100263.03
2023-04-16T20:06:21.614Z,100257.75
2023-04-16T20:08:57.953Z,100253.53
2023-04-16T20:11:32.246Z,100252.12
2023-04-16T20:14:07.483Z,100252.22
2023-04-16T20:16:43.784Z,100245.59
2023-04-16T20:19:19.710Z,100256.69
2023-04-16T20:21:53.986Z,100257.69
2023-04-16T20:24:31.142Z,100245.28
2023-04-16T20:27:05.627Z,100253.28
2023-04-16T20:29:40.411Z,100251.00
2023-04-16T20:32:16.137Z,100237.84
2023-04-16T20:34:50.708Z,100253.81
2023-04-16T20:37:25.012Z,100245.19
2023-04-16T20:39:59.721Z,100254.50
2023-04-16T20:42:35.302Z,100255.69
2023-04-16T20:45:11.313Z,100246.91
2023-04-16T20:47:47.396Z,100243.38
2023-04-16T20:50:22.084Z,100229.53
2023-04-16T20:52:56.731Z,100237.53
2023-04-16T20:55:31.394Z,100233.34
2023-04-16T20:58:05.868Z,100234.66
2023-04-16T21:00:40.844Z,100232.66
2023-04-16T21:03:16.819Z,100231.53
2023-04-16T21:05:53.342Z,100240.44
2023-04-16T21:08:28.168Z,100233.28
2023-04-16T21:11:02.853Z,100231.50
2023-04-16T21:13:37.136Z,100226.41
2023-04-16T21:16:12.586Z,100226.84
2023-04-16T21:18:48.410Z,100224.28
2023-04-16T21:21:23.093Z,100234.13
2023-04-16T21:23:57.499Z,100234.13
2023-04-16T21:26:32.148Z,100228.00
2023-04-16T21:29:06.494Z,100225.25
2023-04-16T21:31:41.281Z,100235.34
2023-04-16T21:34:16.973Z,100232.78
2023-04-16T21:36:51.584Z,100232.31
2023-04-16T21:39:31.005Z,100224.69
2023-04-16T21:42:05.786Z,100232.03
2023-04-16T21:44:40.047Z,100231.13
2023-04-16T21:47:14.912Z,100233.41
2023-04-16T21:49:50.764Z,100234.19
2023-04-16T21:52:25.529Z,100227.91
2023-04-16T21:55:00.499Z,100236.78
2023-04-16T21:57:35.106Z,100233.56
2023-04-16T22:03:00.179Z,100220.66
2023-04-16T22:05:36.014Z,100220.66
2023-04-16T22:08:23.511Z,100230.03
2023-04-16T22:11:00.294Z,100217.97
2023-04-16T22:13:36.756Z,100220.75
2023-04-16T22:16:11.869Z,100201.94
2023-04-16T22:18:48.571Z,100205.31
2023-04-16T22:21:23.213Z,100204.25
2023-04-16T22:23:57.510Z,100208.06
2023-04-16T22:26:32.115Z,100200.88
2023-04-16T22:29:06.669Z,100193.84
2023-04-16T22:31:41.490Z,100199.50
2023-04-16T22:34:17.178Z,100199.22
